Tasman Mariner — VRWW8 — position and weather

sailwx.info

Track history (hours):
 
Tides and Currents Weather Stations Pressure Air Temp Water Temp Dewpoint Dewpoint Depression Visibility Wind Speed Wind Dir Waves Ship Positions

Tasman Mariner

Last reported at 2016-May-31 19:21 UTC. Time now 2016-Jun-25 14:19 UTC.
Position N 01°16' E 104°12'.
Warning: this ship's position is 24 days out of date.

Length 184 m; beam 27 m; draft 10 m.

Type: Cargo ship. MMSI: 477860000.

Date/timePositionNaut miles runAvg speedWind from/ knotsBaromVisibWave heightAir tempDewpointWater temp
2016-May-31 19:21N 01°16' E 104°12'810.3
2016-May-31 18:32N 01°15' E 104°04'1010.3
2016-May-31 17:33N 01°12' E 103°54'1110.7
2016-May-31 16:33N 01°07' E 103°45'9 8.9
2016-May-31 15:33N 01°04' E 103°37'7111.1
2016-May-31 09:06N 01°43' E 102°36'1111.6
2016-May-31 08:07N 01°48' E 102°26'711.9
2016-May-31 07:31N 01°51' E 102°20'4 0.1
2016-May-29 03:31N 01°55' E 102°19'1010.2
2016-May-29 02:33N 01°51' E 102°28'1110.7
2016-May-29 01:33N 01°46' E 102°37'1211.2
2016-May-29 00:28N 01°40' E 102°48'5410.4
2016-May-28 19:16N 01°12' E 103°34'7 9.2
2016-May-28 18:33N 01°13' E 103°41'5 5.4
2016-May-28 17:33N 01°18' E 103°43'0 0.0
2016-May-28 16:33N 01°18' E 103°43'0 0.0
2016-May-28 15:33N 01°18' E 103°43'0 0.0
2016-May-28 14:33N 01°18' E 103°43'0 0.0
2016-May-28 13:33N 01°18' E 103°43'0 0.0
2016-May-28 12:30N 01°18' E 103°43'0 0.0
2016-May-28 11:33N 01°18' E 103°43'0 0.0
2016-May-28 10:33N 01°18' E 103°43'0 0.0
2016-May-28 09:33N 01°18' E 103°43'0 0.0
2016-May-28 08:33N 01°18' E 103°43'0 0.0
2016-May-28 07:33N 01°18' E 103°43'0 0.0
2016-May-28 06:33N 01°18' E 103°43'0 0.0
2016-May-28 05:33N 01°18' E 103°43'7 7.0
2016-May-28 04:33N 01°13' E 103°48'4 3.6
2016-May-28 03:33N 01°16' E 103°50'0 0.1
2016-May-28 02:31N 01°16' E 103°50'0 0.0
2016-May-28 01:31N 01°16' E 103°50'0 0.1
2016-May-28 00:31N 01°16' E 103°50'0 0.1
2016-May-27 23:28N 01°16' E 103°50'0 0.0
2016-May-27 22:31N 01°16' E 103°50'0 0.0
2016-May-27 21:31N 01°16' E 103°50'0 0.0
2016-May-27 20:31N 01°16' E 103°50'0 0.0
2016-May-27 19:31N 01°16' E 103°50'0 0.0
2016-May-27 18:31N 01°16' E 103°50'0 0.0
2016-May-27 17:31N 01°16' E 103°50'0 0.0
2016-May-27 16:34N 01°16' E 103°50'0 0.0
2016-May-27 15:31N 01°16' E 103°50'0 0.0
2016-May-27 14:31N 01°16' E 103°50'0 0.0
2016-May-27 13:31N 01°16' E 103°50'0 0.0
2016-May-27 12:31N 01°16' E 103°50'0 0.0
2016-May-27 11:34N 01°16' E 103°50'0 0.0
2016-May-27 10:34N 01°16' E 103°50'0 0.0
2016-May-27 09:33N 01°16' E 103°50'0 0.0
2016-May-27 08:33N 01°16' E 103°50'0 0.0
2016-May-27 07:31N 01°16' E 103°50'0 0.0
2016-May-27 06:30N 01°16' E 103°50'0 0.0
2016-May-27 05:28N 01°16' E 103°50'0 0.0
2016-May-27 04:30N 01°16' E 103°50'0 0.0
2016-May-27 03:30N 01°16' E 103°50'2 2.4
2016-May-27 02:33N 01°15' E 103°52'1 1.3
2016-May-27 01:32N 01°15' E 103°53'0 0.1
2016-May-27 00:32N 01°15' E 103°53'0 0.1
2016-May-26 23:32N 01°15' E 103°53'0 0.1
2016-May-26 22:29N 01°15' E 103°53'0 0.0
2016-May-26 21:32N 01°15' E 103°53'0 0.1
2016-May-26 20:32N 01°15' E 103°53'0 0.0
2016-May-26 19:32N 01°15' E 103°53'0 0.0
2016-May-26 18:32N 01°15' E 103°53'0 0.0
2016-May-26 17:29N 01°15' E 103°53'0 0.1
2016-May-26 16:32N 01°15' E 103°53'0 0.1
2016-May-26 15:32N 01°15' E 103°53'0 0.1
2016-May-26 14:29N 01°15' E 103°53'0 0.0
2016-May-26 13:28N 01°15' E 103°53'0 0.0
2016-May-26 11:17N 01°15' E 103°53'0 0.0
2016-May-26 10:32N 01°15' E 103°53'0 0.1
2016-May-26 09:28N 01°15' E 103°53'0 0.0
2016-May-26 08:31N 01°15' E 103°53'0 0.1
2016-May-26 07:31N 01°15' E 103°53'0 0.1
2016-May-26 06:31N 01°15' E 103°53'0 0.1
2016-May-26 05:28N 01°15' E 103°53'0 0.1
2016-May-26 04:31N 01°15' E 103°53'0 0.0
2016-May-26 03:31N 01°15' E 103°53'0 0.1
2016-May-26 02:31N 01°15' E 103°53'0 0.0
2016-May-26 01:31N 01°15' E 103°53'0 0.0
2016-May-26 00:31N 01°15' E 103°53'0 0.1
2016-May-25 23:32N 01°15' E 103°53'0 0.1
2016-May-25 22:28N 01°15' E 103°53'0 0.0
2016-May-25 21:31N 01°15' E 103°53'0 0.1
2016-May-25 20:31N 01°15' E 103°53'0 0.0
2016-May-25 19:28N 01°15' E 103°53'0 0.0
2016-May-25 18:22N 01°15' E 103°53'0 0.0
2016-May-25 17:28N 01°15' E 103°53'0 0.1
2016-May-25 16:31N 01°15' E 103°53'0 0.1
2016-May-25 15:28N 01°15' E 103°53'0 0.2
2016-May-25 14:28N 01°15' E 103°53'0 0.0
2016-May-25 13:31N 01°15' E 103°53'0 0.0
2016-May-25 12:31N 01°15' E 103°53'0 0.0
2016-May-25 11:28N 01°15' E 103°53'0 0.0
2016-May-25 10:28N 01°15' E 103°53'0 0.0
2016-May-25 09:10N 01°15' E 103°53'0 0.0
2016-May-25 06:13N 01°15' E 103°53'0 0.1
2016-May-25 05:31N 01°15' E 103°53'0 0.0
2016-May-25 04:16N 01°15' E 103°53'0 0.0
2016-May-25 03:10N 01°15' E 103°53'0 0.0
2016-May-25 02:19N 01°15' E 103°53'0 0.0
2016-May-24 23:22N 01°15' E 103°53'0 0.1
2016-May-24 21:31N 01°15' E 103°53'0 0.1
2016-May-24 20:22N 01°15' E 103°53'0 0.0
2016-May-24 19:31N 01°15' E 103°53'0 0.0
2016-May-24 18:28N 01°15' E 103°53'0 0.0
2016-May-24 17:25N 01°15' E 103°53'0 0.0
2016-May-24 16:31N 01°15' E 103°53'0 0.1
2016-May-24 15:28N 01°15' E 103°53'0 0.0
2016-May-24 13:28N 01°15' E 103°53'0 0.0
2016-May-24 12:22N 01°15' E 103°53'0 0.1
2016-May-24 11:28N 01°15' E 103°53'0 0.1
2016-May-24 10:22N 01°15' E 103°53'0 0.1
2016-May-24 09:31N 01°15' E 103°53'0 0.0
2016-May-24 08:31N 01°15' E 103°53'0 0.0
2016-May-24 07:28N 01°15' E 103°53'0 0.0
2016-May-24 06:31N 01°15' E 103°53'0 0.0
2016-May-24 05:22N 01°15' E 103°53'0 0.0
2016-May-24 04:31N 01°15' E 103°53'0 0.0
2016-May-24 03:31N 01°15' E 103°53'0 0.1
2016-May-24 02:19N 01°15' E 103°53'0 0.0
2016-May-24 00:34N 01°15' E 103°53'0 0.2
2016-May-23 23:33N 01°15' E 103°53'0 0.0
2016-May-23 22:15N 01°15' E 103°53'0 0.1
2016-May-23 21:21N 01°15' E 103°53'0 0.1
2016-May-23 20:33N 01°15' E 103°53'0 0.1
2016-May-23 19:29N 01°15' E 103°53'0 0.0
2016-May-23 18:27N 01°15' E 103°53'0 0.0
2016-May-23 17:33N 01°15' E 103°53'0 0.0
2016-May-23 16:27N 01°15' E 103°53'0 0.2
2016-May-23 15:33N 01°15' E 103°53'0 0.1
2016-May-23 14:33N 01°15' E 103°53'0 0.0
2016-May-23 13:18N 01°15' E 103°53'0 0.0
2016-May-23 12:33N 01°15' E 103°53'0 0.1
2016-May-23 11:30N 01°15' E 103°53'0 0.0
2016-May-23 10:33N 01°15' E 103°53'0 0.1
2016-May-23 09:21N 01°15' E 103°53'0 0.1
2016-May-23 08:21N 01°15' E 103°53'0 0.1
2016-May-23 07:27N 01°15' E 103°53'0 0.1
2016-May-23 06:33N 01°15' E 103°53'0 0.0
2016-May-23 05:33N 01°15' E 103°53'0 0.1
2016-May-23 04:33N 01°15' E 103°53'0 0.0
2016-May-23 03:18N 01°15' E 103°53'0 0.0
2016-May-23 02:33N 01°15' E 103°53'0 0.0
2016-May-23 00:24N 01°15' E 103°53'0 0.0
2016-May-22 23:33N 01°15' E 103°53'0 0.0
2016-May-22 22:33N 01°15' E 103°53'0 0.1
2016-May-22 21:24N 01°15' E 103°53'0 0.1
2016-May-22 20:21N 01°15' E 103°53'0 0.0
2016-May-22 19:21N 01°15' E 103°53'0 0.0
2016-May-22 18:33N 01°15' E 103°53'0 0.1
2016-May-22 17:30N 01°15' E 103°53'0 0.0
2016-May-22 16:33N 01°15' E 103°53'0 0.1
2016-May-22 15:33N 01°15' E 103°53'0 0.1
2016-May-22 14:33N 01°15' E 103°53'0 0.1
2016-May-22 13:30N 01°15' E 103°53'0 0.1
2016-May-22 12:24N 01°15' E 103°53'0 0.1
2016-May-22 11:33N 01°15' E 103°53'0 0.1
2016-May-22 10:21N 01°15' E 103°53'0 0.1
2016-May-22 09:33N 01°15' E 103°53'0 0.0
2016-May-22 08:27N 01°15' E 103°53'0 0.0
2016-May-22 07:33N 01°15' E 103°53'0 0.0
2016-May-22 06:33N 01°15' E 103°53'0 0.0
2016-May-22 05:33N 01°15' E 103°53'0 0.0
2016-May-22 04:33N 01°15' E 103°53'0 0.0
2016-May-22 03:33N 01°15' E 103°53'0 0.0
2016-May-22 02:33N 01°15' E 103°53'0 0.1
2016-May-22 01:21N 01°15' E 103°53'0 0.1
2016-May-22 00:33N 01°15' E 103°53'0 0.0
2016-May-21 23:33N 01°15' E 103°53'0 0.0
2016-May-21 22:33N 01°15' E 103°53'0 0.1
2016-May-21 21:33N 01°15' E 103°53'0 0.1
2016-May-21 20:21N 01°15' E 103°53'0 0.0
2016-May-21 19:33N 01°15' E 103°53'  
Track history (hours):
 
Tides and Currents Weather Stations Pressure Air Temp Water Temp Dewpoint Dewpoint Depression Visibility Wind Speed Wind Dir Waves Ship Positions

Tasman Mariner

Last reported at 2016-May-31 19:21 UTC. Time now 2016-Jun-25 14:19 UTC.
Position N 01°16' E 104°12'.
Warning: this ship's position is 24 days out of date.

Length 184 m; beam 27 m; draft 10 m.

Type: Cargo ship. MMSI: 477860000.

Date/timePositionNaut miles runAvg speedWind from/ knotsBaromVisibWave heightAir tempDewpointWater temp
2016-May-31 19:21N 01°16' E 104°12'810.3
2016-May-31 18:32N 01°15' E 104°04'1010.3
2016-May-31 17:33N 01°12' E 103°54'1110.7
2016-May-31 16:33N 01°07' E 103°45'9 8.9
2016-May-31 15:33N 01°04' E 103°37'7111.1
2016-May-31 09:06N 01°43' E 102°36'1111.6
2016-May-31 08:07N 01°48' E 102°26'711.9
2016-May-31 07:31N 01°51' E 102°20'4 0.1
2016-May-29 03:31N 01°55' E 102°19'1010.2
2016-May-29 02:33N 01°51' E 102°28'1110.7
2016-May-29 01:33N 01°46' E 102°37'1211.2
2016-May-29 00:28N 01°40' E 102°48'5410.4
2016-May-28 19:16N 01°12' E 103°34'7 9.2
2016-May-28 18:33N 01°13' E 103°41'5 5.4
2016-May-28 17:33N 01°18' E 103°43'0 0.0
2016-May-28 16:33N 01°18' E 103°43'0 0.0
2016-May-28 15:33N 01°18' E 103°43'0 0.0
2016-May-28 14:33N 01°18' E 103°43'0 0.0
2016-May-28 13:33N 01°18' E 103°43'0 0.0
2016-May-28 12:30N 01°18' E 103°43'0 0.0
2016-May-28 11:33N 01°18' E 103°43'0 0.0
2016-May-28 10:33N 01°18' E 103°43'0 0.0
2016-May-28 09:33N 01°18' E 103°43'0 0.0
2016-May-28 08:33N 01°18' E 103°43'0 0.0
2016-May-28 07:33N 01°18' E 103°43'0 0.0
2016-May-28 06:33N 01°18' E 103°43'0 0.0
2016-May-28 05:33N 01°18' E 103°43'7 7.0
2016-May-28 04:33N 01°13' E 103°48'4 3.6
2016-May-28 03:33N 01°16' E 103°50'0 0.1
2016-May-28 02:31N 01°16' E 103°50'0 0.0
2016-May-28 01:31N 01°16' E 103°50'0 0.1
2016-May-28 00:31N 01°16' E 103°50'0 0.1
2016-May-27 23:28N 01°16' E 103°50'0 0.0
2016-May-27 22:31N 01°16' E 103°50'0 0.0
2016-May-27 21:31N 01°16' E 103°50'0 0.0
2016-May-27 20:31N 01°16' E 103°50'0 0.0
2016-May-27 19:31N 01°16' E 103°50'0 0.0
2016-May-27 18:31N 01°16' E 103°50'0 0.0
2016-May-27 17:31N 01°16' E 103°50'0 0.0
2016-May-27 16:34N 01°16' E 103°50'0 0.0
2016-May-27 15:31N 01°16' E 103°50'0 0.0
2016-May-27 14:31N 01°16' E 103°50'0 0.0
2016-May-27 13:31N 01°16' E 103°50'0 0.0
2016-May-27 12:31N 01°16' E 103°50'0 0.0
2016-May-27 11:34N 01°16' E 103°50'0 0.0
2016-May-27 10:34N 01°16' E 103°50'0 0.0
2016-May-27 09:33N 01°16' E 103°50'0 0.0
2016-May-27 08:33N 01°16' E 103°50'0 0.0
2016-May-27 07:31N 01°16' E 103°50'0 0.0
2016-May-27 06:30N 01°16' E 103°50'0 0.0
2016-May-27 05:28N 01°16' E 103°50'0 0.0
2016-May-27 04:30N 01°16' E 103°50'0 0.0
2016-May-27 03:30N 01°16' E 103°50'2 2.4
2016-May-27 02:33N 01°15' E 103°52'1 1.3
2016-May-27 01:32N 01°15' E 103°53'0 0.1
2016-May-27 00:32N 01°15' E 103°53'0 0.1
2016-May-26 23:32N 01°15' E 103°53'0 0.1
2016-May-26 22:29N 01°15' E 103°53'0 0.0
2016-May-26 21:32N 01°15' E 103°53'0 0.1
2016-May-26 20:32N 01°15' E 103°53'0 0.0
2016-May-26 19:32N 01°15' E 103°53'0 0.0
2016-May-26 18:32N 01°15' E 103°53'0 0.0
2016-May-26 17:29N 01°15' E 103°53'0 0.1
2016-May-26 16:32N 01°15' E 103°53'0 0.1
2016-May-26 15:32N 01°15' E 103°53'0 0.1
2016-May-26 14:29N 01°15' E 103°53'0 0.0
2016-May-26 13:28N 01°15' E 103°53'0 0.0
2016-May-26 11:17N 01°15' E 103°53'0 0.0
2016-May-26 10:32N 01°15' E 103°53'0 0.1
2016-May-26 09:28N 01°15' E 103°53'0 0.0
2016-May-26 08:31N 01°15' E 103°53'0 0.1
2016-May-26 07:31N 01°15' E 103°53'0 0.1
2016-May-26 06:31N 01°15' E 103°53'0 0.1
2016-May-26 05:28N 01°15' E 103°53'0 0.1
2016-May-26 04:31N 01°15' E 103°53'0 0.0
2016-May-26 03:31N 01°15' E 103°53'0 0.1
2016-May-26 02:31N 01°15' E 103°53'0 0.0
2016-May-26 01:31N 01°15' E 103°53'0 0.0
2016-May-26 00:31N 01°15' E 103°53'0 0.1
2016-May-25 23:32N 01°15' E 103°53'0 0.1
2016-May-25 22:28N 01°15' E 103°53'0 0.0
2016-May-25 21:31N 01°15' E 103°53'0 0.1
2016-May-25 20:31N 01°15' E 103°53'0 0.0
2016-May-25 19:28N 01°15' E 103°53'0 0.0
2016-May-25 18:22N 01°15' E 103°53'0 0.0
2016-May-25 17:28N 01°15' E 103°53'0 0.1
2016-May-25 16:31N 01°15' E 103°53'0 0.1
2016-May-25 15:28N 01°15' E 103°53'0 0.2
2016-May-25 14:28N 01°15' E 103°53'0 0.0
2016-May-25 13:31N 01°15' E 103°53'0 0.0
2016-May-25 12:31N 01°15' E 103°53'0 0.0
2016-May-25 11:28N 01°15' E 103°53'0 0.0
2016-May-25 10:28N 01°15' E 103°53'0 0.0
2016-May-25 09:10N 01°15' E 103°53'0 0.0
2016-May-25 06:13N 01°15' E 103°53'0 0.1
2016-May-25 05:31N 01°15' E 103°53'0 0.0
2016-May-25 04:16N 01°15' E 103°53'0 0.0
2016-May-25 03:10N 01°15' E 103°53'0 0.0
2016-May-25 02:19N 01°15' E 103°53'0 0.0
2016-May-24 23:22N 01°15' E 103°53'0 0.1
2016-May-24 21:31N 01°15' E 103°53'0 0.1
2016-May-24 20:22N 01°15' E 103°53'0 0.0
2016-May-24 19:31N 01°15' E 103°53'0 0.0
2016-May-24 18:28N 01°15' E 103°53'0 0.0
2016-May-24 17:25N 01°15' E 103°53'0 0.0
2016-May-24 16:31N 01°15' E 103°53'0 0.1
2016-May-24 15:28N 01°15' E 103°53'0 0.0
2016-May-24 13:28N 01°15' E 103°53'0 0.0
2016-May-24 12:22N 01°15' E 103°53'0 0.1
2016-May-24 11:28N 01°15' E 103°53'0 0.1
2016-May-24 10:22N 01°15' E 103°53'0 0.1
2016-May-24 09:31N 01°15' E 103°53'0 0.0
2016-May-24 08:31N 01°15' E 103°53'0 0.0
2016-May-24 07:28N 01°15' E 103°53'0 0.0
2016-May-24 06:31N 01°15' E 103°53'0 0.0
2016-May-24 05:22N 01°15' E 103°53'0 0.0
2016-May-24 04:31N 01°15' E 103°53'0 0.0
2016-May-24 03:31N 01°15' E 103°53'0 0.1
2016-May-24 02:19N 01°15' E 103°53'0 0.0
2016-May-24 00:34N 01°15' E 103°53'0 0.2
2016-May-23 23:33N 01°15' E 103°53'0 0.0
2016-May-23 22:15N 01°15' E 103°53'0 0.1
2016-May-23 21:21N 01°15' E 103°53'0 0.1
2016-May-23 20:33N 01°15' E 103°53'0 0.1
2016-May-23 19:29N 01°15' E 103°53'0 0.0
2016-May-23 18:27N 01°15' E 103°53'0 0.0
2016-May-23 17:33N 01°15' E 103°53'0 0.0
2016-May-23 16:27N 01°15' E 103°53'0 0.2
2016-May-23 15:33N 01°15' E 103°53'0 0.1
2016-May-23 14:33N 01°15' E 103°53'0 0.0
2016-May-23 13:18N 01°15' E 103°53'0 0.0
2016-May-23 12:33N 01°15' E 103°53'0 0.1
2016-May-23 11:30N 01°15' E 103°53'0 0.0
2016-May-23 10:33N 01°15' E 103°53'0 0.1
2016-May-23 09:21N 01°15' E 103°53'0 0.1
2016-May-23 08:21N 01°15' E 103°53'0 0.1
2016-May-23 07:27N 01°15' E 103°53'0 0.1
2016-May-23 06:33N 01°15' E 103°53'0 0.0
2016-May-23 05:33N 01°15' E 103°53'0 0.1
2016-May-23 04:33N 01°15' E 103°53'0 0.0
2016-May-23 03:18N 01°15' E 103°53'0 0.0
2016-May-23 02:33N 01°15' E 103°53'0 0.0
2016-May-23 00:24N 01°15' E 103°53'0 0.0
2016-May-22 23:33N 01°15' E 103°53'0 0.0
2016-May-22 22:33N 01°15' E 103°53'0 0.1
2016-May-22 21:24N 01°15' E 103°53'0 0.1
2016-May-22 20:21N 01°15' E 103°53'0 0.0
2016-May-22 19:21N 01°15' E 103°53'0 0.0
2016-May-22 18:33N 01°15' E 103°53'0 0.1
2016-May-22 17:30N 01°15' E 103°53'0 0.0
2016-May-22 16:33N 01°15' E 103°53'0 0.1
2016-May-22 15:33N 01°15' E 103°53'0 0.1
2016-May-22 14:33N 01°15' E 103°53'0 0.1
2016-May-22 13:30N 01°15' E 103°53'0 0.1
2016-May-22 12:24N 01°15' E 103°53'0 0.1
2016-May-22 11:33N 01°15' E 103°53'0 0.1
2016-May-22 10:21N 01°15' E 103°53'0 0.1
2016-May-22 09:33N 01°15' E 103°53'0 0.0
2016-May-22 08:27N 01°15' E 103°53'0 0.0
2016-May-22 07:33N 01°15' E 103°53'0 0.0
2016-May-22 06:33N 01°15' E 103°53'0 0.0
2016-May-22 05:33N 01°15' E 103°53'0 0.0
2016-May-22 04:33N 01°15' E 103°53'0 0.0
2016-May-22 03:33N 01°15' E 103°53'0 0.0
2016-May-22 02:33N 01°15' E 103°53'0 0.1
2016-May-22 01:21N 01°15' E 103°53'0 0.1
2016-May-22 00:33N 01°15' E 103°53'0 0.0
2016-May-21 23:33N 01°15' E 103°53'0 0.0
2016-May-21 22:33N 01°15' E 103°53'0 0.1
2016-May-21 21:33N 01°15' E 103°53'0 0.1
2016-May-21 20:21N 01°15' E 103°53'0 0.0
2016-May-21 19:33N 01°15' E 103°53'  

Dump ship's entire track history